sensor_id;sensor_type;location;lat;lon;timestamp;pressure;altitude;pressure_sealevel;temperature;humidity
76815;BME280;65768;49.906;19.384;2023-02-28T00:01:42;99462.52;;;-1.60;76.06
76815;BME280;65768;49.906;19.384;2023-02-28T00:04:10;99470.02;;;-1.63;76.25
76815;BME280;65768;49.906;19.384;2023-02-28T00:06:38;99473.23;;;-1.64;76.52
76815;BME280;65768;49.906;19.384;2023-02-28T00:09:06;99471.21;;;-1.66;76.02
76815;BME280;65768;49.906;19.384;2023-02-28T00:11:34;99474.11;;;-1.66;76.43
76815;BME280;65768;49.906;19.384;2023-02-28T00:14:02;99475.64;;;-1.68;76.50
76815;BME280;65768;49.906;19.384;2023-02-28T00:16:30;99479.73;;;-1.68;76.55
76815;BME280;65768;49.906;19.384;2023-02-28T00:18:58;99483.73;;;-1.68;76.58
76815;BME280;65768;49.906;19.384;2023-02-28T00:21:26;99490.14;;;-1.66;76.54
76815;BME280;65768;49.906;19.384;2023-02-28T00:23:54;99488.95;;;-1.66;76.78
76815;BME280;65768;49.906;19.384;2023-02-28T00:26:22;99496.20;;;-1.65;76.65
76815;BME280;65768;49.906;19.384;2023-02-28T00:28:52;99496.77;;;-1.64;76.55
76815;BME280;65768;49.906;19.384;2023-02-28T00:31:20;99498.73;;;-1.63;76.31
76815;BME280;65768;49.906;19.384;2023-02-28T00:33:48;99498.23;;;-1.63;75.93
76815;BME280;65768;49.906;19.384;2023-02-28T00:36:16;99495.33;;;-1.63;76.19
76815;BME280;65768;49.906;19.384;2023-02-28T00:38:44;99500.96;;;-1.63;75.88
76815;BME280;65768;49.906;19.384;2023-02-28T00:41:12;99502.82;;;-1.63;76.05
76815;BME280;65768;49.906;19.384;2023-02-28T00:43:40;99508.59;;;-1.64;76.23
76815;BME280;65768;49.906;19.384;2023-02-28T00:46:08;99506.01;;;-1.64;76.53
76815;BME280;65768;49.906;19.384;2023-02-28T00:48:37;99497.71;;;-1.65;76.91
76815;BME280;65768;49.906;19.384;2023-02-28T00:51:05;99499.86;;;-1.67;76.85
76815;BME280;65768;49.906;19.384;2023-02-28T00:53:33;99499.42;;;-1.68;76.95
76815;BME280;65768;49.906;19.384;2023-02-28T00:56:02;99499.04;;;-1.68;76.83
76815;BME280;65768;49.906;19.384;2023-02-28T00:58:31;99492.54;;;-1.69;76.50
76815;BME280;65768;49.906;19.384;2023-02-28T01:00:59;99490.42;;;-1.70;76.74
76815;BME280;65768;49.906;19.384;2023-02-28T01:03:28;99489.20;;;-1.70;76.65
76815;BME280;65768;49.906;19.384;2023-02-28T01:05:56;99484.06;;;-1.72;76.82
76815;BME280;65768;49.906;19.384;2023-02-28T01:08:24;99481.48;;;-1.75;76.75
76815;BME280;65768;49.906;19.384;2023-02-28T01:10:53;99478.23;;;-1.78;76.69
76815;BME280;65768;49.906;19.384;2023-02-28T01:13:21;99474.74;;;-1.81;76.77
76815;BME280;65768;49.906;19.384;2023-02-28T01:15:53;99474.42;;;-1.86;76.95
76815;BME280;65768;49.906;19.384;2023-02-28T01:18:22;99477.85;;;-1.93;77.24
76815;BME280;65768;49.906;19.384;2023-02-28T01:20:50;99474.60;;;-2.03;77.38
76815;BME280;65768;49.906;19.384;2023-02-28T01:23:20;99470.05;;;-2.09;77.74
76815;BME280;65768;49.906;19.384;2023-02-28T01:25:51;99468.35;;;-2.16;78.15
76815;BME280;65768;49.906;19.384;2023-02-28T01:28:20;99471.37;;;-2.24;78.72
76815;BME280;65768;49.906;19.384;2023-02-28T01:30:49;99478.29;;;-2.33;78.65
76815;BME280;65768;49.906;19.384;2023-02-28T01:33:18;99476.99;;;-2.42;78.96
76815;BME280;65768;49.906;19.384;2023-02-28T01:35:46;99476.84;;;-2.53;79.85
76815;BME280;65768;49.906;19.384;2023-02-28T01:38:14;99471.91;;;-2.60;79.76
76815;BME280;65768;49.906;19.384;2023-02-28T01:40:43;99473.63;;;-2.65;80.11
76815;BME280;65768;49.906;19.384;2023-02-28T01:43:22;99473.13;;;-2.76;80.13
76815;BME280;65768;49.906;19.384;2023-02-28T01:45:53;99471.84;;;-2.85;80.62
76815;BME280;65768;49.906;19.384;2023-02-28T01:48:26;99469.08;;;-2.87;80.92
76815;BME280;65768;49.906;19.384;2023-02-28T01:50:58;99469.48;;;-2.96;80.91
76815;BME280;65768;49.906;19.384;2023-02-28T01:53:35;99468.94;;;-3.03;81.08
76815;BME280;65768;49.906;19.384;2023-02-28T01:56:06;99467.17;;;-3.09;80.90
76815;BME280;65768;49.906;19.384;2023-02-28T01:58:37;99466.88;;;-3.06;81.42
76815;BME280;65768;49.906;19.384;2023-02-28T02:01:05;99465.54;;;-3.10;81.69
76815;BME280;65768;49.906;19.384;2023-02-28T02:03:35;99462.09;;;-3.17;82.04
76815;BME280;65768;49.906;19.384;2023-02-28T02:06:03;99462.92;;;-3.22;82.44
76815;BME280;65768;49.906;19.384;2023-02-28T02:08:31;99460.48;;;-3.23;82.51
76815;BME280;65768;49.906;19.384;2023-02-28T02:11:01;99462.15;;;-3.21;82.98
76815;BME280;65768;49.906;19.384;2023-02-28T02:16:43;99465.13;;;-3.15;82.52
76815;BME280;65768;49.906;19.384;2023-02-28T02:19:41;99464.21;;;-3.14;82.47
76815;BME280;65768;49.906;19.384;2023-02-28T02:34:17;99454.36;;;-3.09;81.90
76815;BME280;65768;49.906;19.384;2023-02-28T02:43:04;99451.75;;;-3.14;82.41
76815;BME280;65768;49.906;19.384;2023-02-28T02:45:39;99449.89;;;-3.21;82.78
76815;BME280;65768;49.906;19.384;2023-02-28T02:48:13;99455.05;;;-3.32;82.82
76815;BME280;65768;49.906;19.384;2023-02-28T02:50:45;99456.36;;;-3.35;82.89
76815;BME280;65768;49.906;19.384;2023-02-28T02:53:18;99457.80;;;-3.36;82.74
76815;BME280;65768;49.906;19.384;2023-02-28T02:55:51;99452.56;;;-3.38;83.20
76815;BME280;65768;49.906;19.384;2023-02-28T02:58:26;99451.83;;;-3.36;82.83
76815;BME280;65768;49.906;19.384;2023-02-28T03:00:58;99452.21;;;-3.40;82.73
76815;BME280;65768;49.906;19.384;2023-02-28T03:03:29;99453.45;;;-3.44;83.28
76815;BME280;65768;49.906;19.384;2023-02-28T03:06:00;99454.25;;;-3.47;83.11
76815;BME280;65768;49.906;19.384;2023-02-28T03:08:34;99447.92;;;-3.50;83.60
76815;BME280;65768;49.906;19.384;2023-02-28T03:11:10;99447.71;;;-3.53;83.32
76815;BME280;65768;49.906;19.384;2023-02-28T03:19:46;99456.04;;;-3.76;83.34
76815;BME280;65768;49.906;19.384;2023-02-28T03:22:29;99462.91;;;-3.88;83.77
76815;BME280;65768;49.906;19.384;2023-02-28T03:25:17;99466.00;;;-4.01;84.15
76815;BME280;65768;49.906;19.384;2023-02-28T03:30:51;99471.09;;;-4.21;84.30
76815;BME280;65768;49.906;19.384;2023-02-28T03:33:26;99475.53;;;-4.25;84.73
76815;BME280;65768;49.906;19.384;2023-02-28T03:36:01;99476.30;;;-4.30;85.14
76815;BME280;65768;49.906;19.384;2023-02-28T03:38:38;99474.59;;;-4.37;84.88
76815;BME280;65768;49.906;19.384;2023-02-28T03:41:22;99478.70;;;-4.43;85.20
76815;BME280;65768;49.906;19.384;2023-02-28T03:43:56;99481.04;;;-4.48;85.36
76815;BME280;65768;49.906;19.384;2023-02-28T03:46:27;99484.76;;;-4.57;85.16
76815;BME280;65768;49.906;19.384;2023-02-28T03:49:20;99486.56;;;-4.64;85.34
76815;BME280;65768;49.906;19.384;2023-02-28T03:51:49;99487.61;;;-4.68;85.74
76815;BME280;65768;49.906;19.384;2023-02-28T03:54:22;99489.31;;;-4.70;85.89
76815;BME280;65768;49.906;19.384;2023-02-28T03:57:17;99489.14;;;-4.70;85.86
76815;BME280;65768;49.906;19.384;2023-02-28T03:59:54;99489.23;;;-4.62;85.96
76815;BME280;65768;49.906;19.384;2023-02-28T04:02:24;99495.77;;;-4.66;85.46
76815;BME280;65768;49.906;19.384;2023-02-28T04:04:53;99501.37;;;-4.70;85.72
76815;BME280;65768;49.906;19.384;2023-02-28T04:07:21;99501.13;;;-4.77;85.30
76815;BME280;65768;49.906;19.384;2023-02-28T04:09:49;99499.67;;;-4.81;85.32
76815;BME280;65768;49.906;19.384;2023-02-28T04:12:17;99501.55;;;-4.70;85.12
76815;BME280;65768;49.906;19.384;2023-02-28T04:14:45;99508.14;;;-4.71;86.00
76815;BME280;65768;49.906;19.384;2023-02-28T04:17:13;99502.15;;;-4.73;86.12
76815;BME280;65768;49.906;19.384;2023-02-28T04:19:41;99501.29;;;-4.77;85.95
76815;BME280;65768;49.906;19.384;2023-02-28T04:22:09;99503.88;;;-4.81;86.66
76815;BME280;65768;49.906;19.384;2023-02-28T04:24:37;99500.37;;;-4.89;86.35
76815;BME280;65768;49.906;19.384;2023-02-28T04:27:09;99503.48;;;-4.95;86.71
76815;BME280;65768;49.906;19.384;2023-02-28T04:29:37;99501.41;;;-4.99;87.75
76815;BME280;65768;49.906;19.384;2023-02-28T04:32:05;99501.25;;;-5.03;87.31
76815;BME280;65768;49.906;19.384;2023-02-28T04:34:33;99511.02;;;-5.04;87.89
76815;BME280;65768;49.906;19.384;2023-02-28T04:37:02;99508.64;;;-5.06;87.21
76815;BME280;65768;49.906;19.384;2023-02-28T04:39:35;99509.98;;;-5.08;87.58
76815;BME280;65768;49.906;19.384;2023-02-28T04:42:04;99507.29;;;-5.12;87.18
76815;BME280;65768;49.906;19.384;2023-02-28T04:44:32;99508.67;;;-5.16;87.44
76815;BME280;65768;49.906;19.384;2023-02-28T04:47:00;99509.59;;;-5.19;87.49
76815;BME280;65768;49.906;19.384;2023-02-28T04:49:28;99511.91;;;-5.20;87.72
76815;BME280;65768;49.906;19.384;2023-02-28T04:51:56;99510.96;;;-5.17;88.37
76815;BME280;65768;49.906;19.384;2023-02-28T04:54:24;99509.52;;;-5.16;87.92
76815;BME280;65768;49.906;19.384;2023-02-28T04:56:52;99508.92;;;-5.19;88.09
76815;BME280;65768;49.906;19.384;2023-02-28T04:59:20;99508.23;;;-5.21;88.09
76815;BME280;65768;49.906;19.384;2023-02-28T05:01:49;99506.02;;;-5.22;88.34
76815;BME280;65768;49.906;19.384;2023-02-28T05:04:17;99507.21;;;-5.23;88.51
76815;BME280;65768;49.906;19.384;2023-02-28T05:06:45;99511.42;;;-5.28;88.23
76815;BME280;65768;49.906;19.384;2023-02-28T05:09:12;99507.83;;;-5.28;87.68
76815;BME280;65768;49.906;19.384;2023-02-28T05:11:41;99514.59;;;-5.31;87.63
76815;BME280;65768;49.906;19.384;2023-02-28T05:14:13;99514.14;;;-5.32;87.90
76815;BME280;65768;49.906;19.384;2023-02-28T05:16:42;99510.55;;;-5.34;88.07
76815;BME280;65768;49.906;19.384;2023-02-28T05:19:10;99522.26;;;-5.35;88.25
76815;BME280;65768;49.906;19.384;2023-02-28T05:21:49;99520.83;;;-5.29;88.52
76815;BME280;65768;49.906;19.384;2023-02-28T05:24:18;99513.07;;;-5.14;89.86
76815;BME280;65768;49.906;19.384;2023-02-28T05:26:54;99513.27;;;-5.10;89.34
76815;BME280;65768;49.906;19.384;2023-02-28T05:29:22;99517.23;;;-5.07;89.61
76815;BME280;65768;49.906;19.384;2023-02-28T05:31:50;99519.54;;;-4.98;89.40
76815;BME280;65768;49.906;19.384;2023-02-28T05:34:18;99520.48;;;-4.97;89.18
76815;BME280;65768;49.906;19.384;2023-02-28T05:36:46;99525.44;;;-5.01;88.79
76815;BME280;65768;49.906;19.384;2023-02-28T05:39:14;99528.17;;;-4.94;88.74
76815;BME280;65768;49.906;19.384;2023-02-28T05:41:43;99533.93;;;-4.96;88.44
76815;BME280;65768;49.906;19.384;2023-02-28T05:44:11;99542.25;;;-4.99;88.23
76815;BME280;65768;49.906;19.384;2023-02-28T05:46:40;99544.37;;;-4.91;87.29
76815;BME280;65768;49.906;19.384;2023-02-28T05:49:08;99551.02;;;-4.87;87.63
76815;BME280;65768;49.906;19.384;2023-02-28T05:51:36;99554.11;;;-4.91;87.84
76815;BME280;65768;49.906;19.384;2023-02-28T05:54:07;99551.39;;;-4.95;87.69
76815;BME280;65768;49.906;19.384;2023-02-28T05:56:35;99553.84;;;-4.96;87.80
76815;BME280;65768;49.906;19.384;2023-02-28T05:59:06;99536.34;;;-5.07;87.74
76815;BME280;65768;49.906;19.384;2023-02-28T06:04:04;99558.19;;;-4.91;87.55
76815;BME280;65768;49.906;19.384;2023-02-28T06:06:32;99562.45;;;-4.84;87.30
76815;BME280;65768;49.906;19.384;2023-02-28T06:09:04;99562.97;;;-4.78;87.09
76815;BME280;65768;49.906;19.384;2023-02-28T06:11:32;99570.08;;;-4.74;86.99
76815;BME280;65768;49.906;19.384;2023-02-28T06:14:00;99567.75;;;-4.72;87.24
76815;BME280;65768;49.906;19.384;2023-02-28T06:16:32;99568.27;;;-4.65;87.07
76815;BME280;65768;49.906;19.384;2023-02-28T06:19:01;99568.61;;;-4.61;87.26
76815;BME280;65768;49.906;19.384;2023-02-28T06:21:30;99575.41;;;-4.57;87.16
76815;BME280;65768;49.906;19.384;2023-02-28T06:23:58;99575.48;;;-4.48;87.23
76815;BME280;65768;49.906;19.384;2023-02-28T06:26:27;99579.52;;;-4.40;87.47
76815;BME280;65768;49.906;19.384;2023-02-28T06:28:55;99578.83;;;-4.34;86.94
76815;BME280;65768;49.906;19.384;2023-02-28T06:31:23;99579.90;;;-4.22;86.75
76815;BME280;65768;49.906;19.384;2023-02-28T06:33:53;99581.59;;;-4.12;86.34
76815;BME280;65768;49.906;19.384;2023-02-28T06:36:21;99585.90;;;-4.05;86.32
76815;BME280;65768;49.906;19.384;2023-02-28T06:38:50;99584.48;;;-3.95;86.72
76815;BME280;65768;49.906;19.384;2023-02-28T06:41:25;99585.42;;;-3.85;86.44
76815;BME280;65768;49.906;19.384;2023-02-28T06:43:54;99587.11;;;-3.77;85.95
76815;BME280;65768;49.906;19.384;2023-02-28T06:46:23;99586.92;;;-3.70;86.20
76815;BME280;65768;49.906;19.384;2023-02-28T06:48:51;99587.93;;;-3.64;85.46
76815;BME280;65768;49.906;19.384;2023-02-28T06:51:20;99588.61;;;-3.60;85.09
76815;BME280;65768;49.906;19.384;2023-02-28T06:53:50;99590.84;;;-3.53;84.94
76815;BME280;65768;49.906;19.384;2023-02-28T06:56:19;99589.91;;;-3.47;84.50
76815;BME280;65768;49.906;19.384;2023-02-28T06:58:49;99589.46;;;-3.40;84.66
76815;BME280;65768;49.906;19.384;2023-02-28T07:01:18;99589.95;;;-3.31;84.31
76815;BME280;65768;49.906;19.384;2023-02-28T07:03:46;99588.73;;;-3.20;84.39
76815;BME280;65768;49.906;19.384;2023-02-28T07:06:23;99591.84;;;-3.06;84.47
76815;BME280;65768;49.906;19.384;2023-02-28T07:08:52;99590.72;;;-2.92;84.31
76815;BME280;65768;49.906;19.384;2023-02-28T07:11:22;99593.45;;;-2.76;83.29
76815;BME280;65768;49.906;19.384;2023-02-28T07:13:54;99595.44;;;-2.58;82.55
76815;BME280;65768;49.906;19.384;2023-02-28T07:16:24;99595.73;;;-2.45;81.52
76815;BME280;65768;49.906;19.384;2023-02-28T07:18:53;99600.05;;;-2.28;80.90
76815;BME280;65768;49.906;19.384;2023-02-28T07:21:22;99600.56;;;-2.12;81.22
76815;BME280;65768;49.906;19.384;2023-02-28T07:23:50;99606.10;;;-1.96;80.51
76815;BME280;65768;49.906;19.384;2023-02-28T07:26:20;99603.66;;;-1.82;80.19
76815;BME280;65768;49.906;19.384;2023-02-28T07:28:48;99602.14;;;-1.68;79.72
76815;BME280;65768;49.906;19.384;2023-02-28T07:31:17;99599.34;;;-1.49;79.86
76815;BME280;65768;49.906;19.384;2023-02-28T07:33:46;99603.49;;;-1.34;78.88
76815;BME280;65768;49.906;19.384;2023-02-28T07:36:15;99604.55;;;-1.16;79.12
76815;BME280;65768;49.906;19.384;2023-02-28T07:38:47;99607.25;;;-1.14;78.10
76815;BME280;65768;49.906;19.384;2023-02-28T07:41:20;99602.33;;;-0.93;77.97
76815;BME280;65768;49.906;19.384;2023-02-28T07:43:48;99604.08;;;-0.76;77.94
76815;BME280;65768;49.906;19.384;2023-02-28T07:46:17;99602.16;;;-0.63;75.78
76815;BME280;65768;49.906;19.384;2023-02-28T07:48:45;99603.58;;;-0.57;75.43
76815;BME280;65768;49.906;19.384;2023-02-28T07:51:13;99599.49;;;-0.54;74.55
76815;BME280;65768;49.906;19.384;2023-02-28T07:53:42;99602.25;;;-0.49;75.20
76815;BME280;65768;49.906;19.384;2023-02-28T07:56:10;99600.00;;;-0.44;75.44
76815;BME280;65768;49.906;19.384;2023-02-28T07:58:38;99599.81;;;-0.44;74.91
76815;BME280;65768;49.906;19.384;2023-02-28T08:01:08;99603.22;;;-0.50;74.73
76815;BME280;65768;49.906;19.384;2023-02-28T08:03:37;99601.81;;;-0.50;74.21
76815;BME280;65768;49.906;19.384;2023-02-28T08:06:07;99602.37;;;-0.50;74.01
76815;BME280;65768;49.906;19.384;2023-02-28T08:08:36;99603.77;;;-0.62;73.59
76815;BME280;65768;49.906;19.384;2023-02-28T08:11:04;99601.08;;;-0.51;74.23
76815;BME280;65768;49.906;19.384;2023-02-28T08:13:32;99603.36;;;-0.45;73.18
76815;BME280;65768;49.906;19.384;2023-02-28T08:16:01;99600.98;;;-0.42;73.10
76815;BME280;65768;49.906;19.384;2023-02-28T08:18:29;99604.13;;;-0.33;73.21
76815;BME280;65768;49.906;19.384;2023-02-28T08:20:57;99604.67;;;-0.17;73.48
76815;BME280;65768;49.906;19.384;2023-02-28T08:23:26;99601.94;;;-0.38;71.33
76815;BME280;65768;49.906;19.384;2023-02-28T08:25:55;99603.14;;;-0.43;71.87
76815;BME280;65768;49.906;19.384;2023-02-28T08:28:24;99604.77;;;-0.50;71.42
76815;BME280;65768;49.906;19.384;2023-02-28T08:30:52;99605.35;;;-0.35;71.32
76815;BME280;65768;49.906;19.384;2023-02-28T08:33:20;99601.04;;;-0.20;70.53
76815;BME280;65768;49.906;19.384;2023-02-28T08:35:48;99602.02;;;-0.05;70.77
76815;BME280;65768;49.906;19.384;2023-02-28T08:38:16;99595.63;;;-0.03;69.22
76815;BME280;65768;49.906;19.384;2023-02-28T08:40:44;99599.88;;;-0.06;69.44
76815;BME280;65768;49.906;19.384;2023-02-28T08:43:12;99599.77;;;0.03;67.61
76815;BME280;65768;49.906;19.384;2023-02-28T08:45:40;99599.66;;;0.17;68.85
76815;BME280;65768;49.906;19.384;2023-02-28T08:48:08;99598.98;;;0.53;68.96
76815;BME280;65768;49.906;19.384;2023-02-28T08:50:36;99598.36;;;0.62;67.38
76815;BME280;65768;49.906;19.384;2023-02-28T08:53:04;99595.23;;;0.53;64.20
76815;BME280;65768;49.906;19.384;2023-02-28T08:55:32;99591.70;;;0.54;66.08
76815;BME280;65768;49.906;19.384;2023-02-28T08:58:00;99586.80;;;0.84;67.21
76815;BME280;65768;49.906;19.384;2023-02-28T09:00:29;99587.27;;;0.97;65.67
76815;BME280;65768;49.906;19.384;2023-02-28T09:02:57;99588.05;;;1.21;65.73
76815;BME280;65768;49.906;19.384;2023-02-28T09:05:25;99588.81;;;1.35;65.96
76815;BME280;65768;49.906;19.384;2023-02-28T09:07:54;99589.03;;;1.47;64.07
76815;BME280;65768;49.906;19.384;2023-02-28T09:10:22;99588.23;;;1.16;62.70
76815;BME280;65768;49.906;19.384;2023-02-28T09:12:50;99583.79;;;1.02;63.22
76815;BME280;65768;49.906;19.384;2023-02-28T09:15:18;99587.95;;;0.88;63.36
76815;BME280;65768;49.906;19.384;2023-02-28T09:17:46;99588.17;;;1.07;62.96
76815;BME280;65768;49.906;19.384;2023-02-28T09:20:15;99587.52;;;0.90;61.54
76815;BME280;65768;49.906;19.384;2023-02-28T09:22:43;99594.09;;;0.71;62.00
76815;BME280;65768;49.906;19.384;2023-02-28T09:25:11;99598.40;;;0.71;62.33
76815;BME280;65768;49.906;19.384;2023-02-28T09:27:39;99595.23;;;0.86;62.66
76815;BME280;65768;49.906;19.384;2023-02-28T09:30:08;99594.41;;;0.81;63.67
76815;BME280;65768;49.906;19.384;2023-02-28T09:32:37;99592.40;;;0.60;64.03
76815;BME280;65768;49.906;19.384;2023-02-28T09:35:05;99596.44;;;0.53;64.54
76815;BME280;65768;49.906;19.384;2023-02-28T09:37:33;99595.06;;;0.73;62.98
76815;BME280;65768;49.906;19.384;2023-02-28T09:40:01;99589.27;;;0.82;63.74
76815;BME280;65768;49.906;19.384;2023-02-28T09:42:33;99589.20;;;0.95;64.27
76815;BME280;65768;49.906;19.384;2023-02-28T09:45:06;99592.78;;;0.86;63.01
76815;BME280;65768;49.906;19.384;2023-02-28T09:47:43;99595.92;;;0.73;62.68
76815;BME280;65768;49.906;19.384;2023-02-28T09:53:14;99591.04;;;1.08;62.50
76815;BME280;65768;49.906;19.384;2023-02-28T09:55:48;99592.20;;;1.42;64.07
76815;BME280;65768;49.906;19.384;2023-02-28T09:58:28;99590.63;;;1.39;61.21
76815;BME280;65768;49.906;19.384;2023-02-28T10:10:20;99594.02;;;1.12;61.46
76815;BME280;65768;49.906;19.384;2023-02-28T10:12:53;99590.81;;;1.28;60.63
76815;BME280;65768;49.906;19.384;2023-02-28T10:15:23;99595.27;;;1.30;58.93
76815;BME280;65768;49.906;19.384;2023-02-28T10:17:58;99589.48;;;1.20;58.89
76815;BME280;65768;49.906;19.384;2023-02-28T10:20:27;99593.23;;;1.08;60.07
76815;BME280;65768;49.906;19.384;2023-02-28T10:23:10;99597.68;;;1.39;59.75
76815;BME280;65768;49.906;19.384;2023-02-28T10:25:40;99594.50;;;1.49;58.36
76815;BME280;65768;49.906;19.384;2023-02-28T10:28:13;99590.27;;;1.39;58.21
76815;BME280;65768;49.906;19.384;2023-02-28T10:30:50;99593.40;;;1.63;59.75
76815;BME280;65768;49.906;19.384;2023-02-28T10:33:35;99592.54;;;1.87;60.20
76815;BME280;65768;49.906;19.384;2023-02-28T10:36:04;99593.66;;;2.04;59.57
76815;BME280;65768;49.906;19.384;2023-02-28T10:38:37;99588.71;;;2.02;57.83
76815;BME280;65768;49.906;19.384;2023-02-28T10:41:30;99585.17;;;1.97;56.58
76815;BME280;65768;49.906;19.384;2023-02-28T10:44:21;99579.03;;;2.13;59.56
76815;BME280;65768;49.906;19.384;2023-02-28T10:46:50;99574.36;;;1.64;58.64
76815;BME280;65768;49.906;19.384;2023-02-28T10:49:27;99580.86;;;1.69;60.19
76815;BME280;65768;49.906;19.384;2023-02-28T10:51:59;99570.13;;;1.80;58.48
76815;BME280;65768;49.906;19.384;2023-02-28T10:54:31;99569.59;;;1.65;57.62
76815;BME280;65768;49.906;19.384;2023-02-28T10:57:19;99569.08;;;1.95;59.24
76815;BME280;65768;49.906;19.384;2023-02-28T10:59:51;99565.70;;;2.08;57.95
76815;BME280;65768;49.906;19.384;2023-02-28T11:02:35;99557.42;;;2.04;57.21
76815;BME280;65768;49.906;19.384;2023-02-28T11:05:29;99554.48;;;1.92;55.64
76815;BME280;65768;49.906;19.384;2023-02-28T11:08:17;99552.09;;;2.11;58.61
76815;BME280;65768;49.906;19.384;2023-02-28T11:10:48;99542.58;;;2.10;58.51
76815;BME280;65768;49.906;19.384;2023-02-28T11:13:26;99544.94;;;1.81;57.70
76815;BME280;65768;49.906;19.384;2023-02-28T11:15:58;99548.39;;;1.75;57.03
76815;BME280;65768;49.906;19.384;2023-02-28T11:24:00;99538.11;;;1.28;59.19
76815;BME280;65768;49.906;19.384;2023-02-28T11:26:46;99539.46;;;1.30;58.69
76815;BME280;65768;49.906;19.384;2023-02-28T11:29:28;99535.52;;;1.28;57.98
76815;BME280;65768;49.906;19.384;2023-02-28T11:32:09;99529.87;;;1.28;59.16
76815;BME280;65768;49.906;19.384;2023-02-28T11:34:40;99532.42;;;1.39;59.01
76815;BME280;65768;49.906;19.384;2023-02-28T11:37:13;99529.42;;;1.41;59.27
76815;BME280;65768;49.906;19.384;2023-02-28T11:39:42;99526.73;;;1.51;58.60
76815;BME280;65768;49.906;19.384;2023-02-28T11:52:56;99516.08;;;1.79;57.04
76815;BME280;65768;49.906;19.384;2023-02-28T11:55:32;99513.30;;;1.94;56.92
76815;BME280;65768;49.906;19.384;2023-02-28T12:14:25;99503.77;;;2.33;57.02
76815;BME280;65768;49.906;19.384;2023-02-28T12:17:21;99500.93;;;2.44;56.98
76815;BME280;65768;49.906;19.384;2023-02-28T12:28:31;99494.08;;;2.65;57.51
76815;BME280;65768;49.906;19.384;2023-02-28T12:33:47;99495.76;;;2.44;56.63
76815;BME280;65768;49.906;19.384;2023-02-28T12:36:18;99499.30;;;2.27;56.70
76815;BME280;65768;49.906;19.384;2023-02-28T12:39:29;99498.27;;;2.18;56.99
76815;BME280;65768;49.906;19.384;2023-02-28T12:42:05;99498.79;;;2.24;55.10
76815;BME280;65768;49.906;19.384;2023-02-28T12:44:46;99502.98;;;2.41;57.08
76815;BME280;65768;49.906;19.384;2023-02-28T12:47:18;99501.42;;;2.70;57.52
76815;BME280;65768;49.906;19.384;2023-02-28T12:49:52;99499.05;;;2.58;56.26
76815;BME280;65768;49.906;19.384;2023-02-28T12:55:42;99499.60;;;2.36;56.18
76815;BME280;65768;49.906;19.384;2023-02-28T12:58:27;99497.17;;;2.29;56.02
76815;BME280;65768;49.906;19.384;2023-02-28T13:01:33;99499.17;;;2.25;55.56
76815;BME280;65768;49.906;19.384;2023-02-28T13:09:57;99487.41;;;2.53;57.02
76815;BME280;65768;49.906;19.384;2023-02-28T13:12:27;99485.20;;;2.27;56.14
76815;BME280;65768;49.906;19.384;2023-02-28T13:15:12;99483.73;;;2.28;56.97
76815;BME280;65768;49.906;19.384;2023-02-28T13:17:48;99483.79;;;2.30;55.57
76815;BME280;65768;49.906;19.384;2023-02-28T13:20:20;99482.55;;;2.35;55.81
76815;BME280;65768;49.906;19.384;2023-02-28T13:22:52;99476.11;;;2.44;56.82
76815;BME280;65768;49.906;19.384;2023-02-28T13:28:02;99475.73;;;2.73;55.74
76815;BME280;65768;49.906;19.384;2023-02-28T13:33:28;99477.29;;;2.57;54.57
76815;BME280;65768;49.906;19.384;2023-02-28T13:36:28;99470.23;;;2.53;56.32
76815;BME280;65768;49.906;19.384;2023-02-28T13:39:00;99471.36;;;2.65;55.85
76815;BME280;65768;49.906;19.384;2023-02-28T13:44:14;99470.30;;;2.25;56.70
76815;BME280;65768;49.906;19.384;2023-02-28T13:49:19;99457.35;;;2.47;56.10
76815;BME280;65768;49.906;19.384;2023-02-28T13:51:49;99457.98;;;2.59;56.41
76815;BME280;65768;49.906;19.384;2023-02-28T13:57:01;99448.85;;;2.69;56.58
76815;BME280;65768;49.906;19.384;2023-02-28T14:05:22;99437.67;;;2.73;55.89
76815;BME280;65768;49.906;19.384;2023-02-28T14:07:57;99441.02;;;2.54;56.20
76815;BME280;65768;49.906;19.384;2023-02-28T14:15:59;99434.65;;;2.61;56.70
76815;BME280;65768;49.906;19.384;2023-02-28T14:18:35;99432.57;;;3.90;54.21
76815;BME280;65768;49.906;19.384;2023-02-28T14:23:50;99422.98;;;6.16;46.34
76815;BME280;65768;49.906;19.384;2023-02-28T14:26:53;99422.65;;;6.78;44.54
76815;BME280;65768;49.906;19.384;2023-02-28T14:30:02;99412.13;;;8.33;42.43
76815;BME280;65768;49.906;19.384;2023-02-28T14:37:56;99404.42;;;9.36;38.17
76815;BME280;65768;49.906;19.384;2023-02-28T14:40:30;99415.41;;;8.51;37.97
76815;BME280;65768;49.906;19.384;2023-02-28T14:43:03;99411.48;;;8.17;39.44
76815;BME280;65768;49.906;19.384;2023-02-28T14:45:34;99415.48;;;8.36;39.96
76815;BME280;65768;49.906;19.384;2023-02-28T14:48:04;99414.45;;;8.61;39.75
76815;BME280;65768;49.906;19.384;2023-02-28T14:50:37;99415.73;;;9.03;38.43
76815;BME280;65768;49.906;19.384;2023-02-28T14:53:09;99417.94;;;8.06;40.30
76815;BME280;65768;49.906;19.384;2023-02-28T14:55:45;99418.27;;;7.56;41.68
76815;BME280;65768;49.906;19.384;2023-02-28T14:58:34;99422.66;;;7.41;42.54
76815;BME280;65768;49.906;19.384;2023-02-28T15:01:03;99424.67;;;5.62;45.67
76815;BME280;65768;49.906;19.384;2023-02-28T15:06:06;99431.11;;;5.40;46.70
76815;BME280;65768;49.906;19.384;2023-02-28T15:08:40;99434.58;;;4.83;48.29
76815;BME280;65768;49.906;19.384;2023-02-28T15:11:16;99432.54;;;4.96;48.66
76815;BME280;65768;49.906;19.384;2023-02-28T15:13:49;99430.16;;;5.01;49.15
76815;BME280;65768;49.906;19.384;2023-02-28T15:16:20;99426.90;;;5.30;47.21
76815;BME280;65768;49.906;19.384;2023-02-28T15:18:53;99432.63;;;4.86;48.82
76815;BME280;65768;49.906;19.384;2023-02-28T15:21:28;99434.51;;;4.61;48.68
76815;BME280;65768;49.906;19.384;2023-02-28T15:24:04;99426.02;;;4.03;51.25
76815;BME280;65768;49.906;19.384;2023-02-28T15:26:46;99431.13;;;3.39;52.92
76815;BME280;65768;49.906;19.384;2023-02-28T15:29:19;99428.80;;;3.84;52.64
76815;BME280;65768;49.906;19.384;2023-02-28T15:32:22;99426.41;;;4.07;51.63